Time;durP1;ratioP1;P1;durP2;ratioP2;P2;SDS_P1;SDS_P2;PMS_P1;PMS_P2;Temp;Humidity;BMP_temperature;BMP_pressure;BME280_temperature;BME280_humidity;BME280_pressure;Samples;Min_cycle;Max_cycle;Signal;HPM_P1;HPM_P2
2023/05/07 00:00:09;;;;;;;4.33;2.12;;;;;;;9.42;35.79;101185.85;1781564;80;21446;-55
2023/05/07 00:02:38;;;;;;;5.60;2.37;;;;;;;9.37;35.93;101181.92;1781732;80;20996;-55
2023/05/07 00:05:09;;;;;;;5.42;2.25;;;;;;;9.37;36.06;101183.28;1781842;80;21363;-54
2023/05/07 00:07:40;;;;;;;3.40;2.10;;;;;;;9.33;36.14;101183.28;1781654;80;21469;-56
2023/05/07 00:10:10;;;;;;;4.12;2.02;;;;;;;9.29;36.19;101181.91;1781851;80;20993;-54
2023/05/07 00:12:40;;;;;;;5.87;2.37;;;;;;;9.26;36.37;101183.63;1781538;80;21981;-57
2023/05/07 00:15:10;;;;;;;7.97;2.00;;;;;;;9.25;36.45;101183.28;1781674;80;21006;-56
2023/05/07 00:17:39;;;;;;;3.45;2.10;;;;;;;9.24;36.49;101174.73;1781965;80;21011;-56
2023/05/07 00:20:09;;;;;;;6.20;2.37;;;;;;;9.25;36.43;101173.71;1781693;80;21453;-56
2023/05/07 00:22:38;;;;;;;5.12;2.47;;;;;;;9.21;36.56;101175.42;1781821;80;21427;-56
2023/05/07 00:25:08;;;;;;;4.95;2.20;;;;;;;9.13;36.71;101171.83;1781698;80;20991;-55
2023/05/07 00:27:38;;;;;;;4.97;2.10;;;;;;;9.07;36.92;101169.23;1781842;80;21027;-54
2023/05/07 00:30:08;;;;;;;4.50;2.10;;;;;;;9.04;36.97;101169.56;1781903;80;21449;-56
2023/05/07 00:32:37;;;;;;;4.40;2.10;;;;;;;9.05;37.06;101169.91;1781650;80;21043;-55
2023/05/07 00:35:08;;;;;;;4.75;2.17;;;;;;;9.05;37.09;101169.91;1781492;80;21027;-56
2023/05/07 00:37:38;;;;;;;4.35;2.10;;;;;;;9.01;37.14;101179.98;1781607;80;21435;-57
2023/05/07 00:40:09;;;;;;;3.85;2.02;;;;;;;8.97;37.10;101175.36;1781989;80;21027;-55
2023/05/07 00:42:40;;;;;;;6.20;2.15;;;;;;;8.97;37.21;101177.23;1781580;80;21034;-57
2023/05/07 00:45:10;;;;;;;5.03;2.10;;;;;;;8.97;37.27;101178.61;1781691;80;21054;-55
2023/05/07 00:47:40;;;;;;;5.92;1.98;;;;;;;8.94;37.30;101187.14;1781903;80;20955;-56
2023/05/07 00:50:14;;;;;;;3.83;2.00;;;;;;;8.92;37.39;101185.94;1781634;80;21022;-56
2023/05/07 00:52:42;;;;;;;5.35;2.27;;;;;;;8.92;37.44;101186.45;1781709;80;21101;-56
2023/05/07 00:55:11;;;;;;;4.45;1.98;;;;;;;8.91;37.42;101192.44;1781572;80;21010;-56
2023/05/07 00:57:41;;;;;;;6.72;2.22;;;;;;;8.84;37.52;101192.25;1781607;80;21101;-57
2023/05/07 01:00:12;;;;;;;5.10;2.05;;;;;;;8.79;37.66;101189.67;1781791;80;21666;-56
2023/05/07 01:02:43;;;;;;;2.85;1.80;;;;;;;8.80;37.72;101189.50;1781680;80;21045;-57
2023/05/07 01:05:16;;;;;;;5.83;2.52;;;;;;;8.83;37.77;101203.34;1781775;80;21022;-55
2023/05/07 01:07:45;;;;;;;4.12;2.15;;;;;;;8.82;37.78;101191.56;1781671;80;21034;-55
2023/05/07 01:10:15;;;;;;;4.12;2.10;;;;;;;8.82;37.71;101196.17;1781564;80;21411;-56
2023/05/07 01:12:44;;;;;;;5.90;2.02;;;;;;;8.80;37.77;101196.84;1781594;80;21660;-56
2023/05/07 01:15:13;;;;;;;4.97;2.05;;;;;;;8.79;37.82;101200.60;1781516;80;21671;-56
2023/05/07 01:17:42;;;;;;;3.67;1.77;;;;;;;8.82;37.93;101194.80;1781848;80;21410;-56
2023/05/07 01:20:13;;;;;;;4.85;2.00;;;;;;;8.84;37.92;101194.98;1781196;80;21046;-56
2023/05/07 01:22:43;;;;;;;3.50;1.87;;;;;;;8.84;37.97;101196.86;1781626;80;21423;-55
2023/05/07 01:25:13;;;;;;;5.03;2.02;;;;;;;8.80;38.04;101197.70;1781535;80;21400;-56
2023/05/07 01:27:46;;;;;;;5.28;1.90;;;;;;;8.75;38.14;101199.22;1781706;80;21403;-56
2023/05/07 01:30:16;;;;;;;2.83;1.70;;;;;;;8.74;38.13;101201.61;1781771;80;21027;-54
2023/05/07 01:32:52;;;;;;;3.37;1.98;;;;;;;8.73;38.18;101205.37;1781650;80;21435;-54
2023/05/07 01:35:27;;;;;;;3.27;1.75;;;;;;;8.70;38.25;101207.92;1781606;80;21466;-56
2023/05/07 01:37:56;;;;;;;5.47;2.17;;;;;;;8.65;38.37;101206.20;1781663;80;21494;-55
2023/05/07 01:40:26;;;;;;;3.75;1.98;;;;;;;8.64;38.45;101206.36;1781660;80;21019;-57
2023/05/07 01:42:54;;;;;;;5.12;2.10;;;;;;;8.62;38.50;101198.84;1781498;80;20988;-55
2023/05/07 01:45:25;;;;;;;4.50;2.00;;;;;;;8.63;38.50;101207.38;1781486;80;20975;-54
2023/05/07 01:47:55;;;;;;;4.75;1.67;;;;;;;8.65;38.55;101210.80;1781710;80;21035;-55
2023/05/07 01:50:24;;;;;;;2.80;1.52;;;;;;;8.67;38.61;101215.08;1781677;80;20981;-56
2023/05/07 01:52:53;;;;;;;2.92;1.77;;;;;;;8.67;38.54;101215.59;1781550;80;21470;-57
2023/05/07 01:55:23;;;;;;;3.72;1.92;;;;;;;8.65;38.56;101217.13;1781615;80;21478;-56
2023/05/07 01:57:52;;;;;;;3.17;1.70;;;;;;;8.65;38.67;101225.83;1781595;80;21387;-55
2023/05/07 02:00:21;;;;;;;3.90;2.08;;;;;;;8.60;38.57;101230.42;1781526;80;20995;-55
2023/05/07 02:02:50;;;;;;;3.85;1.80;;;;;;;8.56;38.61;101227.16;1781497;80;21031;-55
2023/05/07 02:05:24;;;;;;;3.40;1.80;;;;;;;8.57;38.72;101232.12;1781477;80;21415;-57
2023/05/07 02:08:07;;;;;;;5.17;1.90;;;;;;;8.58;38.69;101234.69;1781044;80;20995;-55
2023/05/07 02:10:37;;;;;;;2.77;1.82;;;;;;;8.58;38.73;101236.05;1781718;80;20963;-56
2023/05/07 02:13:07;;;;;;;2.80;1.80;;;;;;;8.61;38.75;101234.02;1779365;80;21490;-56
2023/05/07 02:15:37;;;;;;;4.17;1.80;;;;;;;8.63;38.65;101237.44;1744252;81;21003;-57
2023/05/07 02:18:09;;;;;;;4.17;1.80;;;;;;;8.62;38.79;101232.98;1772243;81;20980;-56
2023/05/07 02:20:37;;;;;;;3.60;1.77;;;;;;;8.61;38.77;101235.38;1772370;81;21031;-54
2023/05/07 02:23:06;;;;;;;4.87;2.02;;;;;;;8.61;38.82;101226.67;1772112;81;20987;-56
2023/05/07 02:25:37;;;;;;;3.35;1.85;;;;;;;8.60;38.93;101225.47;1772285;81;20992;-55
2023/05/07 02:28:05;;;;;;;2.87;1.57;;;;;;;8.63;38.86;101226.51;1772251;81;20983;-55
2023/05/07 02:30:42;;;;;;;5.15;1.90;;;;;;;8.63;38.86;101230.60;1769306;81;21447;-56
2023/05/07 02:33:13;;;;;;;3.77;2.00;;;;;;;8.62;38.88;101234.36;1772132;81;21019;-57
2023/05/07 02:35:43;;;;;;;4.20;1.85;;;;;;;8.61;38.89;101240.33;1771980;80;21447;-56
2023/05/07 02:38:13;;;;;;;6.67;1.80;;;;;;;8.62;38.73;101239.82;1771874;81;21447;-56
2023/05/07 02:40:42;;;;;;;2.58;1.60;;;;;;;8.60;38.73;101245.45;1771999;81;21368;-56
2023/05/07 02:43:10;;;;;;;3.42;1.75;;;;;;;8.61;38.76;101246.30;1772100;81;21024;-58
2023/05/07 02:45:40;;;;;;;4.03;1.92;;;;;;;8.60;38.75;101245.95;1772200;81;21423;-56
2023/05/07 02:48:09;;;;;;;3.05;1.87;;;;;;;8.60;38.80;101251.42;1772160;81;21403;-55
2023/05/07 02:50:38;;;;;;;2.58;1.67;;;;;;;8.56;38.89;101252.27;1771835;81;21026;-56
2023/05/07 02:53:08;;;;;;;2.08;1.50;;;;;;;8.55;39.04;101258.23;1771804;81;21035;-55
2023/05/07 02:55:36;;;;;;;6.15;1.80;;;;;;;8.55;39.08;101257.37;1771938;81;20956;-55
2023/05/07 02:58:05;;;;;;;4.45;2.00;;;;;;;8.52;39.13;101254.46;1772207;81;20999;-57
2023/05/07 03:00:36;;;;;;;3.22;1.67;;;;;;;8.53;39.21;101249.85;1771996;81;20992;-56
2023/05/07 03:03:16;;;;;;;2.85;1.62;;;;;;;8.55;39.20;101261.47;1770579;81;21039;-56
2023/05/07 03:05:44;;;;;;;3.37;1.80;;;;;;;8.57;39.24;101267.63;1772152;81;21058;-56
2023/05/07 03:08:13;;;;;;;3.98;1.80;;;;;;;8.57;39.36;101267.63;1772351;81;21000;-56
2023/05/07 03:10:44;;;;;;;3.72;2.00;;;;;;;8.58;39.42;101268.83;1772161;81;21039;-56
2023/05/07 03:13:13;;;;;;;4.40;2.15;;;;;;;8.61;39.40;101264.91;1771862;80;21552;-56
2023/05/07 03:15:42;;;;;;;3.75;2.08;;;;;;;8.60;39.63;101265.94;1771930;80;20967;-56
2023/05/07 03:18:11;;;;;;;4.25;1.90;;;;;;;8.64;39.62;101271.42;1772304;80;21032;-56
2023/05/07 03:20:40;;;;;;;4.90;2.10;;;;;;;8.66;39.54;101267.16;1772097;81;21415;-55
2023/05/07 03:23:09;;;;;;;3.27;1.77;;;;;;;8.64;39.58;101271.42;1771935;81;21051;-55
2023/05/07 03:25:39;;;;;;;4.83;1.98;;;;;;;8.64;39.71;101276.02;1772004;81;21023;-56
2023/05/07 03:28:09;;;;;;;5.03;2.20;;;;;;;8.65;39.72;101278.59;1772284;81;21489;-55
2023/05/07 03:30:39;;;;;;;4.33;2.02;;;;;;;8.65;39.66;101277.73;1771971;80;21396;-57
2023/05/07 03:33:08;;;;;;;4.15;1.80;;;;;;;8.61;39.59;101277.21;1772016;81;21046;-56
2023/05/07 03:35:37;;;;;;;4.83;2.00;;;;;;;8.61;39.51;101290.02;1772081;81;21552;-55
2023/05/07 03:38:08;;;;;;;4.67;2.12;;;;;;;8.60;39.56;101291.03;1772302;81;21449;-56
2023/05/07 03:40:39;;;;;;;4.58;2.05;;;;;;;8.59;39.70;101280.61;1772020;81;21501;-55
2023/05/07 03:43:08;;;;;;;4.55;2.47;;;;;;;8.60;39.78;101289.16;1772066;81;21062;-56
2023/05/07 03:45:37;;;;;;;5.85;2.17;;;;;;;8.63;39.95;101286.09;1772047;81;21062;-58
2023/05/07 03:48:13;;;;;;;5.75;2.20;;;;;;;8.69;40.30;101295.52;1771551;81;21031;-55
2023/05/07 03:50:42;;;;;;;4.58;2.02;;;;;;;8.70;40.53;101287.16;1772123;81;21417;-56
2023/05/07 03:53:11;;;;;;;7.05;2.25;;;;;;;8.72;40.52;101292.45;1771859;80;20984;-56
2023/05/07 03:55:40;;;;;;;3.98;1.82;;;;;;;8.72;40.42;101285.63;1772307;80;21007;-56
2023/05/07 03:58:10;;;;;;;4.22;1.60;;;;;;;8.72;40.29;101290.58;1772056;81;21015;-55
2023/05/07 04:00:39;;;;;;;5.17;1.95;;;;;;;8.70;40.25;101287.66;1772308;81;21058;-55
2023/05/07 04:03:20;;;;;;;3.83;2.00;;;;;;;8.63;40.30;101297.53;1771960;81;21047;-56
2023/05/07 04:05:49;;;;;;;3.35;1.57;;;;;;;8.64;40.46;101293.78;1771973;81;21485;-55
2023/05/07 04:08:19;;;;;;;4.70;2.10;;;;;;;8.64;40.45;101296.52;1772128;81;21454;-55
2023/05/07 04:10:57;;;;;;;2.60;1.82;;;;;;;8.60;40.49;101299.23;1772322;81;20991;-56
2023/05/07 04:13:30;;;;;;;3.75;2.15;;;;;;;8.58;40.52;101304.86;1772176;79;21023;-56
2023/05/07 04:16:01;;;;;;;5.40;2.25;;;;;;;8.58;40.66;101301.61;1772027;81;21023;-55
2023/05/07 04:18:31;;;;;;;3.92;2.02;;;;;;;8.60;40.66;101297.86;1772053;81;21052;-55
2023/05/07 04:21:02;;;;;;;4.58;2.27;;;;;;;8.61;40.81;101299.06;1772209;81;21039;-56
2023/05/07 04:23:33;;;;;;;3.40;1.98;;;;;;;8.55;40.97;101291.02;1772276;81;21011;-56
2023/05/07 04:26:04;;;;;;;5.92;2.40;;;;;;;8.49;41.25;101288.08;1772227;81;21505;-56
2023/05/07 04:28:38;;;;;;;5.25;2.08;;;;;;;8.43;41.58;101290.91;1771662;81;21267;-56
2023/05/07 04:31:08;;;;;;;3.87;2.05;;;;;;;8.43;42.00;101293.64;1771992;81;21026;-56
2023/05/07 04:33:40;;;;;;;6.25;2.35;;;;;;;8.44;41.95;101288.53;1772170;81;21035;-55
2023/05/07 04:36:11;;;;;;;5.83;2.00;;;;;;;8.47;41.99;101284.14;1772132;81;20983;-55
2023/05/07 04:38:42;;;;;;;6.12;2.35;;;;;;;8.49;42.11;101279.38;1771380;81;21026;-56
2023/05/07 04:41:13;;;;;;;7.40;2.30;;;;;;;8.49;42.16;101277.15;1772203;81;20959;-55
2023/05/07 04:43:42;;;;;;;4.47;1.98;;;;;;;8.48;42.45;101274.93;1771959;81;21430;-55
2023/05/07 04:46:13;;;;;;;7.22;3.80;;;;;;;8.49;42.30;101275.78;1772239;81;21439;-56
2023/05/07 04:48:42;;;;;;;6.10;2.37;;;;;;;8.49;42.46;101274.42;1772014;81;21457;-55
2023/05/07 04:51:12;;;;;;;3.87;2.10;;;;;;;8.42;42.64;101271.45;1772025;81;21426;-57
2023/05/07 04:53:42;;;;;;;4.28;2.10;;;;;;;8.43;42.59;101267.70;1772106;81;21031;-56
2023/05/07 04:56:11;;;;;;;3.75;1.95;;;;;;;8.50;42.50;101268.80;1772099;81;20992;-56
2023/05/07 04:58:43;;;;;;;3.58;2.10;;;;;;;8.54;42.60;101266.08;1772088;81;21376;-56
2023/05/07 05:01:11;;;;;;;4.28;2.12;;;;;;;8.57;42.51;101271.73;1771979;81;21431;-56
2023/05/07 05:03:40;;;;;;;5.08;2.02;;;;;;;8.61;42.48;101270.89;1772050;81;20995;-57
2023/05/07 05:06:09;;;;;;;6.83;2.00;;;;;;;8.64;42.38;101266.46;1772088;81;20975;-56
2023/05/07 05:08:38;;;;;;;4.25;2.08;;;;;;;8.67;42.67;101253.84;1772289;81;21395;-55
2023/05/07 05:11:08;;;;;;;4.08;2.20;;;;;;;8.68;42.65;101251.45;1772017;79;21004;-56
2023/05/07 05:13:37;;;;;;;4.92;2.30;;;;;;;8.69;42.39;101261.36;1772658;80;21239;-56
2023/05/07 05:16:08;;;;;;;3.52;1.87;;;;;;;8.71;42.35;101268.38;1781346;80;21015;-57
2023/05/07 05:18:37;;;;;;;7.15;2.30;;;;;;;8.72;42.25;101263.77;1781559;80;21019;-56
2023/05/07 05:21:07;;;;;;;3.87;1.90;;;;;;;8.73;42.19;101263.60;1781547;80;20998;-56
2023/05/07 05:23:36;;;;;;;4.20;2.17;;;;;;;8.70;42.25;101258.98;1782038;80;21030;-57
2023/05/07 05:26:05;;;;;;;4.30;2.00;;;;;;;8.70;42.23;101252.15;1781886;80;21014;-56
2023/05/07 05:28:34;;;;;;;4.00;1.82;;;;;;;8.70;42.13;101249.41;1781617;80;20991;-56
2023/05/07 05:31:04;;;;;;;4.90;2.20;;;;;;;8.74;42.30;101248.06;1781560;80;21477;-58
2023/05/07 05:33:35;;;;;;;4.70;1.90;;;;;;;8.83;41.99;101253.91;1781671;80;21430;-57
2023/05/07 05:36:06;;;;;;;5.50;2.33;;;;;;;8.90;41.67;101261.78;1781952;80;20999;-56
2023/05/07 05:38:35;;;;;;;3.40;2.08;;;;;;;8.94;41.56;101253.59;1781652;80;21030;-56
2023/05/07 05:41:04;;;;;;;3.70;2.22;;;;;;;8.98;41.53;101253.61;1781761;80;20963;-55
2023/05/07 05:43:33;;;;;;;4.45;2.05;;;;;;;8.98;41.51;101251.39;1781538;80;21430;-55
2023/05/07 05:46:04;;;;;;;3.52;2.10;;;;;;;9.00;41.44;101243.36;1781819;80;21415;-58
2023/05/07 05:48:33;;;;;;;5.55;1.98;;;;;;;9.03;41.28;101247.64;1781598;80;20979;-56
2023/05/07 05:51:03;;;;;;;4.53;1.85;;;;;;;9.06;40.95;101252.27;1781618;80;21066;-55
2023/05/07 05:53:32;;;;;;;3.67;1.87;;;;;;;9.07;40.67;101247.65;1781565;80;21423;-56
2023/05/07 05:56:01;;;;;;;3.35;1.62;;;;;;;9.11;40.68;101247.18;1781863;80;21002;-55
2023/05/07 05:58:32;;;;;;;5.87;2.15;;;;;;;9.14;40.50;101244.11;1781807;80;20983;-56
2023/05/07 06:01:02;;;;;;;4.10;1.87;;;;;;;9.16;40.29;101242.58;1781455;80;21015;-55
2023/05/07 06:03:36;;;;;;;3.77;2.00;;;;;;;9.16;40.34;101248.90;1760284;80;21030;-55
2023/05/07 06:06:04;;;;;;;4.33;1.92;;;;;;;9.19;40.39;101249.08;1781706;80;21003;-58
2023/05/07 06:08:33;;;;;;;6.92;2.00;;;;;;;9.24;40.40;101251.30;1781397;80;21003;-56
2023/05/07 06:11:03;;;;;;;2.55;1.75;;;;;;;9.32;40.36;101254.05;1781638;80;21387;-56
2023/05/07 06:13:34;;;;;;;3.80;1.98;;;;;;;9.37;40.26;101245.68;1781515;80;21411;-56
2023/05/07 06:16:04;;;;;;;6.90;1.80;;;;;;;9.44;39.91;101240.39;1781452;80;21485;-56
2023/05/07 06:18:33;;;;;;;2.72;1.90;;;;;;;9.53;39.82;101242.10;1781671;80;20963;-55
2023/05/07 06:21:02;;;;;;;3.95;1.80;;;;;;;9.58;39.32;101250.66;1781568;80;21023;-56
2023/05/07 06:23:32;;;;;;;4.87;1.87;;;;;;;9.62;39.18;101249.28;1781509;80;20999;-55
2023/05/07 06:26:02;;;;;;;5.28;2.00;;;;;;;9.68;39.00;101252.70;1781405;80;21461;-57
2023/05/07 06:28:36;;;;;;;4.67;2.22;;;;;;;9.67;39.10;101256.47;1781356;80;20999;-56
2023/05/07 06:31:16;;;;;;;3.75;1.87;;;;;;;9.71;39.03;101264.68;1781480;80;20959;-57
2023/05/07 06:33:48;;;;;;;4.85;1.85;;;;;;;9.74;38.74;101259.38;1781047;80;20999;-57
2023/05/07 06:36:17;;;;;;;5.75;1.80;;;;;;;9.80;38.59;101263.69;1781512;80;21110;-56
2023/05/07 06:38:46;;;;;;;3.62;1.85;;;;;;;9.80;38.48;101267.79;1781635;80;21015;-55
2023/05/07 06:41:16;;;;;;;4.08;1.80;;;;;;;9.78;38.50;101267.63;1781306;80;21023;-54
2023/05/07 06:43:45;;;;;;;4.22;1.87;;;;;;;9.76;38.55;101259.58;1781481;80;21439;-54
2023/05/07 06:46:21;;;;;;;3.47;1.70;;;;;;;9.76;38.71;101258.21;1775871;80;21027;-55
2023/05/07 06:48:52;;;;;;;4.85;1.60;;;;;;;9.78;38.33;101262.14;1781678;80;21015;-57
2023/05/07 06:51:21;;;;;;;2.85;1.75;;;;;;;9.79;38.52;101263.34;1759736;80;21027;-56
2023/05/07 06:53:50;;;;;;;2.55;1.40;;;;;;;9.85;38.36;101273.60;1781830;80;20991;-57
2023/05/07 06:56:19;;;;;;;3.75;2.00;;;;;;;9.93;38.38;101272.74;1781504;80;20987;-57
2023/05/07 06:58:48;;;;;;;3.52;1.92;;;;;;;10.02;37.90;101261.27;1781360;80;21460;-56
2023/05/07 07:01:18;;;;;;;5.83;1.90;;;;;;;10.08;37.88;101265.54;1781782;80;21026;-56
2023/05/07 07:03:51;;;;;;;3.90;1.90;;;;;;;10.16;37.27;101266.89;1781531;80;21015;-55
2023/05/07 07:06:22;;;;;;;4.58;2.40;;;;;;;10.14;37.13;101259.37;1781750;80;21446;-56
2023/05/07 07:08:51;;;;;;;5.92;2.50;;;;;;;10.17;37.23;101260.39;1781678;80;21410;-55
2023/05/07 07:11:22;;;;;;;5.10;2.30;;;;;;;10.22;37.17;101257.16;1781629;80;20991;-56
2023/05/07 07:13:51;;;;;;;7.83;3.12;;;;;;;10.27;37.13;101257.48;1781684;80;21018;-56
2023/05/07 07:16:21;;;;;;;3.87;2.10;;;;;;;10.35;37.05;101265.69;1781710;79;21042;-58
2023/05/07 07:18:52;;;;;;;4.55;2.05;;;;;;;10.46;37.23;101265.86;1781700;80;21022;-57
2023/05/07 07:21:21;;;;;;;4.55;1.67;;;;;;;10.53;37.16;101255.91;1781311;80;21403;-57
2023/05/07 07:23:51;;;;;;;4.55;2.00;;;;;;;10.60;36.50;101255.53;1781583;80;21395;-57
2023/05/07 07:26:21;;;;;;;3.58;2.10;;;;;;;10.68;36.09;101256.02;1781880;80;21038;-56
2023/05/07 07:28:49;;;;;;;3.33;1.72;;;;;;;10.73;35.85;101259.08;1781772;80;21446;-57
2023/05/07 07:31:21;;;;;;;4.25;1.80;;;;;;;10.77;35.25;101257.17;1781826;80;21007;-56
2023/05/07 07:33:51;;;;;;;5.72;1.82;;;;;;;10.80;35.03;101260.08;1781906;80;20959;-55
2023/05/07 07:36:21;;;;;;;3.10;1.90;;;;;;;10.79;35.17;101253.73;1781625;80;21430;-55
2023/05/07 07:38:53;;;;;;;3.98;1.62;;;;;;;10.84;35.37;101257.83;1780939;79;21034;-56
2023/05/07 07:41:24;;;;;;;2.22;1.50;;;;;;;10.92;34.91;101264.13;1781905;80;21082;-56
2023/05/07 07:43:53;;;;;;;5.42;1.65;;;;;;;11.00;34.45;101258.61;1781532;80;20999;-56
2023/05/07 07:46:22;;;;;;;3.05;1.45;;;;;;;11.07;34.22;101262.89;1781675;80;20987;-55
2023/05/07 07:48:50;;;;;;;2.98;1.30;;;;;;;11.13;34.12;101253.08;1781553;80;21015;-56
2023/05/07 07:51:19;;;;;;;2.75;1.10;;;;;;;11.23;33.32;101270.16;1781616;80;21450;-56
2023/05/07 07:53:49;;;;;;;3.65;1.67;;;;;;;11.26;32.28;101254.72;1781930;80;21051;-56
2023/05/07 07:56:18;;;;;;;2.47;1.15;;;;;;;11.23;32.20;101249.59;1781955;80;21010;-56
2023/05/07 07:58:47;;;;;;;2.17;1.27;;;;;;;11.21;32.32;101254.41;1781724;80;21035;-56
2023/05/07 08:01:17;;;;;;;2.15;1.45;;;;;;;11.23;32.29;101255.08;1781808;80;20987;-55
2023/05/07 08:03:47;;;;;;;3.62;1.60;;;;;;;11.27;32.56;101259.16;1781826;80;21396;-57
2023/05/07 08:06:17;;;;;;;3.40;1.37;;;;;;;11.33;32.19;101252.95;1781793;80;21510;-56
2023/05/07 08:08:46;;;;;;;5.42;1.40;;;;;;;11.43;31.89;101261.80;1781848;80;21455;-55
2023/05/07 08:11:18;;;;;;;4.37;1.55;;;;;;;11.42;31.46;101255.45;1781629;80;21022;-56
2023/05/07 08:13:46;;;;;;;1.98;1.20;;;;;;;11.44;31.62;101263.51;1781493;80;21031;-56
2023/05/07 08:16:16;;;;;;;3.10;1.40;;;;;;;11.44;31.21;101264.36;1774228;80;21540;-56
2023/05/07 08:18:47;;;;;;;3.37;1.30;;;;;;;11.44;31.27;101267.63;1772123;80;21046;-56
2023/05/07 08:21:16;;;;;;;3.52;1.20;;;;;;;11.40;31.78;101269.02;1771945;81;21055;-56
2023/05/07 08:23:45;;;;;;;4.53;1.40;;;;;;;11.39;32.03;101268.69;1763268;81;20951;-58
2023/05/07 08:26:14;;;;;;;7.12;1.50;;;;;;;11.41;32.30;101265.25;1755875;82;21458;-58
2023/05/07 08:28:43;;;;;;;1.75;1.00;;;;;;;11.45;32.27;101270.70;1726314;82;21483;-58
2023/05/07 08:31:12;;;;;;;3.70;1.35;;;;;;;11.49;31.66;101261.07;1763118;80;21498;-56
2023/05/07 08:33:43;;;;;;;4.60;1.30;;;;;;;11.50;32.01;101256.44;1758212;80;21685;-55
2023/05/07 08:36:12;;;;;;;2.35;1.40;;;;;;;11.53;31.97;101262.41;1773146;80;21107;-57
2023/05/07 08:38:42;;;;;;;1.98;1.10;;;;;;;11.50;31.42;101267.41;1768976;81;21019;-56
2023/05/07 08:41:11;;;;;;;2.30;1.15;;;;;;;11.48;31.71;101263.48;1726143;83;21030;-57
2023/05/07 08:43:41;;;;;;;2.70;1.22;;;;;;;11.53;31.50;101263.78;1748627;82;21443;-56
2023/05/07 08:46:11;;;;;;;3.98;1.22;;;;;;;11.60;31.85;101255.16;1756005;82;21054;-56
2023/05/07 08:48:41;;;;;;;4.72;1.02;;;;;;;11.66;31.67;101261.80;1774090;80;20963;-56
2023/05/07 08:51:19;;;;;;;3.98;1.27;;;;;;;11.69;31.45;101254.56;1787258;80;21394;-57
2023/05/07 08:53:49;;;;;;;2.55;1.42;;;;;;;11.69;31.73;101262.80;1787328;80;21026;-57
2023/05/07 08:56:20;;;;;;;2.25;1.30;;;;;;;11.71;31.51;101264.88;1786787;80;20990;-57
2023/05/07 08:58:51;;;;;;;3.58;1.55;;;;;;;11.64;31.66;101266.10;1787210;80;20987;-58
2023/05/07 09:01:20;;;;;;;2.45;1.52;;;;;;;11.64;31.90;101262.50;1787236;80;21063;-56
2023/05/07 09:03:51;;;;;;;2.92;1.40;;;;;;;11.66;31.67;101264.02;1787217;80;20967;-56
2023/05/07 09:06:20;;;;;;;3.25;1.20;;;;;;;11.65;31.26;101262.84;1772402;80;21024;-56
2023/05/07 09:08:53;;;;;;;2.00;1.40;;;;;;;11.63;31.61;101262.16;1769038;81;21396;-54
2023/05/07 09:11:23;;;;;;;2.92;1.32;;;;;;;11.68;31.22;101259.72;1769269;81;21043;-56
2023/05/07 09:14:01;;;;;;;5.35;1.60;;;;;;;11.64;31.31;101255.64;1769043;81;21467;-55
2023/05/07 09:16:30;;;;;;;;;;;;;;;11.65;31.16;101266.44;1804965;79;21082;-56
2023/05/07 09:19:04;;;;;;;4.70;2.37;;;;;;;11.69;31.35;101267.77;1814704;79;20376;-57
2023/05/07 09:21:30;;;;;;;7.30;1.85;;;;;;;11.73;31.33;101273.78;1814868;79;20980;-56
2023/05/07 09:24:00;;;;;;;1.42;1.10;;;;;;;11.71;30.99;101272.59;1814809;79;21054;-56
2023/05/07 09:26:32;;;;;;;2.42;1.00;;;;;;;11.67;30.94;101272.59;1814267;79;21035;-58
2023/05/07 09:29:02;;;;;;;2.95;1.20;;;;;;;11.64;30.84;101271.59;1787996;79;21075;-55
2023/05/07 09:31:31;;;;;;;2.75;1.42;;;;;;;11.64;30.68;101266.10;1814824;79;21050;-55
2023/05/07 09:34:00;;;;;;;3.47;1.32;;;;;;;11.63;30.99;101271.25;1814819;79;20988;-55
2023/05/07 09:36:32;;;;;;;3.25;1.30;;;;;;;11.63;30.99;101267.14;1814803;79;21058;-57
2023/05/07 09:39:01;;;;;;;4.37;1.60;;;;;;;11.65;30.83;101276.05;1781557;80;21038;-54
2023/05/07 09:41:32;;;;;;;3.92;2.12;;;;;;;11.65;30.90;101270.55;1782432;80;21504;-55
2023/05/07 09:44:05;;;;;;;4.08;1.50;;;;;;;11.65;31.90;101274.67;1780941;80;21513;-55
2023/05/07 09:46:39;;;;;;;6.50;2.72;;;;;;;11.67;31.07;101272.59;1782431;80;21047;-56
2023/05/07 09:49:14;;;;;;;2.42;1.40;;;;;;;11.69;31.17;101269.66;1781493;80;20991;-56
2023/05/07 09:51:51;;;;;;;5.92;1.40;;;;;;;11.71;30.88;101272.59;1782471;80;21045;-55
2023/05/07 09:54:21;;;;;;;3.83;1.07;;;;;;;11.72;30.90;101272.08;1782570;80;21422;-56
2023/05/07 09:56:52;;;;;;;3.40;1.80;;;;;;;11.75;30.69;101265.70;1782524;80;21466;-57
2023/05/07 09:59:21;;;;;;;2.90;1.47;;;;;;;11.72;30.77;101272.08;1782366;80;21042;-54
2023/05/07 10:01:50;;;;;;;2.47;1.60;;;;;;;11.69;30.71;101267.77;1782516;80;20955;-58
2023/05/07 10:04:20;;;;;;;4.55;1.50;;;;;;;11.70;30.91;101266.77;1782599;80;20999;-56
2023/05/07 10:06:49;;;;;;;3.65;1.55;;;;;;;11.73;30.47;101256.80;1782686;80;21003;-55
2023/05/07 10:09:18;;;;;;;3.67;1.80;;;;;;;11.75;31.23;101254.72;1782597;80;21011;-54
2023/05/07 10:11:51;;;;;;;3.87;2.00;;;;;;;11.79;30.54;101246.14;1782450;80;20990;-56
2023/05/07 10:14:22;;;;;;;4.65;1.87;;;;;;;11.81;30.46;101242.69;1782597;80;21046;-55
2023/05/07 10:16:50;;;;;;;3.15;1.87;;;;;;;11.80;30.30;101239.61;1781643;80;21026;-54
2023/05/07 10:19:19;;;;;;;3.55;1.30;;;;;;;11.79;30.24;101246.14;1781293;80;20999;-56
2023/05/07 10:21:59;;;;;;;2.30;1.20;;;;;;;11.79;30.05;101240.13;1781251;80;21399;-54
2023/05/07 10:24:39;;;;;;;3.50;1.87;;;;;;;11.83;30.36;101240.61;1781337;80;21062;-55
2023/05/07 10:27:11;;;;;;;1.87;1.30;;;;;;;11.86;29.77;101230.11;1781086;80;21012;-54
2023/05/07 10:30:06;;;;;;;2.77;1.50;;;;;;;11.84;29.75;101223.09;1781049;80;21015;-55
2023/05/07 10:32:46;;;;;;;2.85;1.20;;;;;;;11.85;29.91;101230.30;1781322;80;21347;-56
2023/05/07 10:35:22;;;;;;;2.85;1.62;;;;;;;11.91;29.82;101228.17;1780836;80;20991;-56
2023/05/07 10:37:51;;;;;;;2.98;1.52;;;;;;;11.99;30.06;101222.09;1781022;80;21016;-56
2023/05/07 10:40:20;;;;;;;2.75;1.60;;;;;;;12.09;29.99;101221.81;1781560;80;21431;-57
2023/05/07 10:43:01;;;;;;;5.15;1.55;;;;;;;12.15;29.47;101220.21;1781220;80;21022;-54
2023/05/07 10:45:32;;;;;;;2.40;1.30;;;;;;;12.18;29.70;101227.55;1781265;80;21014;-56
2023/05/07 10:48:17;;;;;;;2.37;1.22;;;;;;;12.28;29.84;101219.03;1781285;80;21701;-55
2023/05/07 10:50:49;;;;;;;1.52;1.00;;;;;;;12.33;29.66;101222.92;1780920;80;21051;-54
2023/05/07 10:53:22;;;;;;;2.72;1.10;;;;;;;12.39;29.58;101222.72;1781505;80;21023;-55
2023/05/07 10:56:22;;;;;;;3.83;1.80;;;;;;;12.36;29.73;101233.56;1781064;79;21039;-55
2023/05/07 10:58:52;;;;;;;2.37;1.55;;;;;;;12.41;29.80;101221.16;1780625;80;21449;-57
2023/05/07 11:01:52;;;;;;;4.15;1.82;;;;;;;12.44;29.75;101220.77;1780966;80;21454;-55
2023/05/07 11:04:27;;;;;;;4.78;1.50;;;;;;;12.41;29.97;101217.88;1774379;80;21395;-55
2023/05/07 11:07:16;;;;;;;4.28;1.87;;;;;;;12.45;29.62;101222.48;1780830;80;21015;-54
2023/05/07 11:10:03;;;;;;;2.05;1.40;;;;;;;12.41;29.38;101213.77;1780841;80;20999;-58
2023/05/07 11:12:47;;;;;;;;;;;;;;;12.32;29.17;101210.75;1782500;79;20999;-57
2023/05/07 11:15:35;;;;;;;5.28;1.62;;;;;;;12.20;29.48;101209.51;1781036;80;20191;-56
2023/05/07 11:18:06;;;;;;;3.90;1.42;;;;;;;12.18;29.94;101203.34;1776876;80;21046;-56
2023/05/07 11:20:57;;;;;;;1.75;1.25;;;;;;;12.20;29.76;101206.23;1781377;80;20979;-56
2023/05/07 11:23:41;;;;;;;3.17;1.25;;;;;;;12.20;29.75;101208.98;1777260;80;21434;-57
2023/05/07 11:26:12;;;;;;;3.27;1.82;;;;;;;12.13;29.61;101220.39;1779018;80;21027;-58
2023/05/07 11:28:42;;;;;;;3.90;1.77;;;;;;;12.08;30.01;101215.98;1781281;80;21058;-58
2023/05/07 11:31:11;;;;;;;2.62;1.60;;;;;;;12.07;29.97;101218.40;1781752;80;20991;-56
2023/05/07 11:33:40;;;;;;;2.87;1.57;;;;;;;12.10;30.18;101218.55;1781359;80;20994;-55
2023/05/07 11:36:11;;;;;;;2.30;1.00;;;;;;;12.16;30.27;101219.17;1781467;80;21407;-58
2023/05/07 11:38:42;;;;;;;3.45;1.30;;;;;;;12.21;30.36;101209.31;1782786;80;21027;-58
2023/05/07 11:41:10;;;;;;;2.27;1.00;;;;;;;12.20;29.90;101211.73;1797434;80;21058;-56
2023/05/07 11:43:55;;;;;;;3.05;1.12;;;;;;;12.18;30.07;101215.19;1797632;80;21471;-56
2023/05/07 11:46:24;;;;;;;2.60;1.45;;;;;;;12.21;30.01;101210.69;1780251;80;21016;-58
2023/05/07 11:48:53;;;;;;;3.72;2.10;;;;;;;12.26;30.03;101212.35;1797393;80;20977;-57